Time;durP1;ratioP1;P1;durP2;ratioP2;P2;SDS_P1;SDS_P2;PMS_P1;PMS_P2;Temp;Humidity;BMP_temperature;BMP_pressure;BME280_temperature;BME280_humidity;BME280_pressure;Samples;Min_cycle;Max_cycle;Signal;HPM_P1;HPM_P2
2023/07/18 00:00:07;;;;;;;1.05;0.95;;;;;;;;;;5037618;28;20047;-61
2023/07/18 00:02:35;;;;;;;0.75;0.65;;;;;;;;;;5040205;28;20037;-61
2023/07/18 00:05:01;;;;;;;1.17;1.05;;;;;;;;;;5035796;28;20103;-61
2023/07/18 00:07:27;;;;;;;1.70;1.08;;;;;;;;;;5035494;28;20045;-61
2023/07/18 00:09:53;;;;;;;1.42;1.00;;;;;;;;;;5037712;28;20041;-61
2023/07/18 00:12:19;;;;;;;1.52;1.00;;;;;;;;;;5037265;28;20551;-61
2023/07/18 00:14:45;;;;;;;1.17;0.70;;;;;;;;;;5033369;28;20045;-61
2023/07/18 00:17:11;;;;;;;1.50;0.90;;;;;;;;;;5034437;28;20150;-61
2023/07/18 00:19:37;;;;;;;1.35;0.90;;;;;;;;;;5037998;28;20052;-61
2023/07/18 00:22:03;;;;;;;0.80;0.77;;;;;;;;;;5034332;28;20056;-61
2023/07/18 00:24:30;;;;;;;1.77;1.02;;;;;;;;;;5035175;28;20099;-61
2023/07/18 00:26:57;;;;;;;1.33;1.20;;;;;;;;;;5039492;28;20037;-61
2023/07/18 00:29:23;;;;;;;1.40;1.30;;;;;;;;;;5034759;28;20116;-61
2023/07/18 00:31:49;;;;;;;1.50;1.08;;;;;;;;;;5036400;28;20152;-61
2023/07/18 00:34:15;;;;;;;1.35;1.00;;;;;;;;;;5039600;28;20053;-61
2023/07/18 00:36:41;;;;;;;0.82;0.68;;;;;;;;;;5034098;28;20119;-61
2023/07/18 00:39:07;;;;;;;2.92;1.17;;;;;;;;;;5034957;28;20040;-61
2023/07/18 00:41:33;;;;;;;1.63;1.25;;;;;;;;;;5030705;28;20041;-61
2023/07/18 00:43:59;;;;;;;1.90;1.50;;;;;;;;;;5032480;28;20045;-61
2023/07/18 00:46:26;;;;;;;1.65;1.33;;;;;;;;;;5036485;28;20086;-61
2023/07/18 00:48:52;;;;;;;2.45;1.70;;;;;;;;;;5035465;28;20103;-61
2023/07/18 00:51:18;;;;;;;3.10;2.25;;;;;;;;;;5039646;28;20032;-61
2023/07/18 00:53:44;;;;;;;3.35;2.50;;;;;;;;;;5032402;28;20696;-61
2023/07/18 00:56:11;;;;;;;4.35;2.60;;;;;;;;;;5036466;28;20427;-61
2023/07/18 00:58:37;;;;;;;3.33;2.63;;;;;;;;;;5034826;28;20064;-61
2023/07/18 01:01:03;;;;;;;2.80;2.13;;;;;;;;;;5036706;28;20414;-61
2023/07/18 01:03:29;;;;;;;3.60;2.50;;;;;;;;;;5039001;28;20037;-61
2023/07/18 01:05:55;;;;;;;3.97;2.60;;;;;;;;;;5032572;28;20049;-62
2023/07/18 01:08:21;;;;;;;3.40;2.22;;;;;;;;;;5034888;28;20034;-62
2023/07/18 01:10:47;;;;;;;3.80;2.58;;;;;;;;;;5034248;28;20088;-62
2023/07/18 01:13:13;;;;;;;1.90;1.58;;;;;;;;;;5035039;28;20057;-62
2023/07/18 01:15:39;;;;;;;3.08;2.20;;;;;;;;;;5038236;28;20045;-62
2023/07/18 01:18:08;;;;;;;5.30;2.38;;;;;;;;;;5032503;28;20033;-62
2023/07/18 01:20:36;;;;;;;3.50;2.00;;;;;;;;;;5037894;28;20045;-62
2023/07/18 01:23:05;;;;;;;2.58;2.17;;;;;;;;;;5037909;28;20424;-61
2023/07/18 01:25:33;;;;;;;3.97;2.67;;;;;;;;;;5030693;28;20045;-61
2023/07/18 01:27:59;;;;;;;2.38;2.10;;;;;;;;;;5037405;28;20433;-62
2023/07/18 01:30:26;;;;;;;2.58;1.85;;;;;;;;;;5031040;28;20508;-62
2023/07/18 01:32:52;;;;;;;2.13;1.92;;;;;;;;;;5037183;28;20037;-62
2023/07/18 01:35:20;;;;;;;2.95;2.00;;;;;;;;;;5033878;28;20498;-62
2023/07/18 01:37:46;;;;;;;2.70;1.80;;;;;;;;;;5036241;28;20038;-62
2023/07/18 01:40:14;;;;;;;2.08;1.55;;;;;;;;;;5033781;28;20034;-61
2023/07/18 01:42:40;;;;;;;3.03;1.40;;;;;;;;;;5037587;28;20045;-62
2023/07/18 01:45:06;;;;;;;1.85;1.30;;;;;;;;;;5033679;28;20040;-62
2023/07/18 01:47:32;;;;;;;2.13;1.20;;;;;;;;;;5032651;28;20052;-62
2023/07/18 01:49:59;;;;;;;1.73;1.20;;;;;;;;;;5033728;28;20088;-62
2023/07/18 01:52:27;;;;;;;1.45;1.05;;;;;;;;;;5035917;28;20048;-62
2023/07/18 01:54:54;;;;;;;1.35;1.02;;;;;;;;;;5034713;28;20505;-62
2023/07/18 01:57:20;;;;;;;1.98;1.00;;;;;;;;;;5033686;28;20033;-62
2023/07/18 01:59:46;;;;;;;1.80;1.20;;;;;;;;;;5037027;28;20087;-62
2023/07/18 02:02:12;;;;;;;1.00;0.90;;;;;;;;;;5037018;28;20032;-62
2023/07/18 02:04:38;;;;;;;1.85;0.88;;;;;;;;;;5034038;28;20048;-62
2023/07/18 02:07:04;;;;;;;1.52;0.95;;;;;;;;;;5037227;28;20045;-62
2023/07/18 02:09:31;;;;;;;1.33;0.90;;;;;;;;;;5035869;28;20055;-62
2023/07/18 02:11:57;;;;;;;1.23;0.95;;;;;;;;;;5035556;28;20133;-62
2023/07/18 02:14:23;;;;;;;1.52;0.93;;;;;;;;;;5031609;28;20588;-62
2023/07/18 02:16:49;;;;;;;1.40;0.80;;;;;;;;;;5032969;28;20077;-61
2023/07/18 02:19:15;;;;;;;0.93;0.80;;;;;;;;;;5033136;28;20146;-61
2023/07/18 02:21:42;;;;;;;1.27;0.63;;;;;;;;;;5028720;28;20053;-61
2023/07/18 02:24:08;;;;;;;1.73;1.20;;;;;;;;;;5034597;28;20079;-62
2023/07/18 02:26:34;;;;;;;1.25;0.93;;;;;;;;;;5034168;28;20545;-62
2023/07/18 02:29:00;;;;;;;1.02;0.82;;;;;;;;;;5034565;28;20080;-62
2023/07/18 02:31:26;;;;;;;2.55;0.85;;;;;;;;;;5036523;28;20723;-61
2023/07/18 02:33:52;;;;;;;1.60;0.80;;;;;;;;;;5031084;28;20049;-62
2023/07/18 02:36:18;;;;;;;1.95;0.80;;;;;;;;;;5036186;28;20049;-62
2023/07/18 02:38:44;;;;;;;2.83;0.70;;;;;;;;;;5036933;28;20128;-61
2023/07/18 02:41:10;;;;;;;1.45;0.95;;;;;;;;;;5035346;28;20144;-62
2023/07/18 02:43:36;;;;;;;1.38;0.70;;;;;;;;;;5043624;28;20039;-61
2023/07/18 02:46:02;;;;;;;2.78;1.20;;;;;;;;;;5036819;28;20080;-61
2023/07/18 02:48:28;;;;;;;0.85;0.60;;;;;;;;;;5040051;28;20056;-62
2023/07/18 02:50:54;;;;;;;0.70;0.52;;;;;;;;;;5037222;28;20049;-62
2023/07/18 02:53:20;;;;;;;2.35;0.70;;;;;;;;;;5040750;28;20091;-61
2023/07/18 02:55:49;;;;;;;1.02;0.80;;;;;;;;;;5036734;28;20091;-61
2023/07/18 02:58:15;;;;;;;0.55;0.50;;;;;;;;;;5035136;28;20037;-61
2023/07/18 03:00:41;;;;;;;2.05;0.60;;;;;;;;;;5039736;28;20112;-61
2023/07/18 03:03:07;;;;;;;1.75;0.60;;;;;;;;;;5040134;28;20584;-61
2023/07/18 03:05:33;;;;;;;2.50;0.82;;;;;;;;;;5038125;28;20041;-62
2023/07/18 03:07:59;;;;;;;1.08;0.68;;;;;;;;;;5035705;28;20069;-62
2023/07/18 03:10:25;;;;;;;0.93;0.70;;;;;;;;;;5038252;28;20500;-62
2023/07/18 03:12:51;;;;;;;2.65;0.95;;;;;;;;;;5040383;28;20061;-62
2023/07/18 03:15:19;;;;;;;1.10;0.73;;;;;;;;;;5037299;28;20060;-62
2023/07/18 03:17:45;;;;;;;0.82;0.82;;;;;;;;;;5037035;28;20048;-62
2023/07/18 03:20:19;;;;;;;0.70;0.60;;;;;;;;;;5037503;28;20039;-61
2023/07/18 03:22:49;;;;;;;1.23;0.65;;;;;;;;;;5031032;28;20059;-62
2023/07/18 03:25:17;;;;;;;1.77;0.65;;;;;;;;;;5036630;28;20091;-61
2023/07/18 03:27:43;;;;;;;0.60;0.50;;;;;;;;;;5036458;28;20434;-61
2023/07/18 03:30:13;;;;;;;1.20;0.98;;;;;;;;;;5034776;28;20451;-61
2023/07/18 03:32:39;;;;;;;1.50;0.90;;;;;;;;;;5036922;28;20037;-61
2023/07/18 03:35:06;;;;;;;1.55;0.90;;;;;;;;;;5036134;28;20038;-61
2023/07/18 03:37:32;;;;;;;1.35;0.75;;;;;;;;;;5034875;28;20397;-61
2023/07/18 03:39:59;;;;;;;0.80;0.60;;;;;;;;;;5035881;28;20140;-62
2023/07/18 03:42:25;;;;;;;1.58;0.68;;;;;;;;;;5041868;28;20042;-62
2023/07/18 03:44:51;;;;;;;0.95;0.60;;;;;;;;;;5039494;28;20041;-61
2023/07/18 03:47:17;;;;;;;0.80;0.50;;;;;;;;;;5035369;28;20041;-61
2023/07/18 03:49:43;;;;;;;0.98;0.70;;;;;;;;;;5034057;28;20059;-61
2023/07/18 03:52:09;;;;;;;1.05;0.75;;;;;;;;;;5034903;28;20041;-61
2023/07/18 03:54:35;;;;;;;0.75;0.60;;;;;;;;;;5039482;28;20041;-62
2023/07/18 03:57:01;;;;;;;1.40;0.95;;;;;;;;;;5033323;28;20050;-62
2023/07/18 03:59:28;;;;;;;1.27;0.57;;;;;;;;;;5037526;28;20041;-62
2023/07/18 04:01:54;;;;;;;0.90;0.50;;;;;;;;;;5039916;28;20064;-62
2023/07/18 04:04:20;;;;;;;1.02;0.73;;;;;;;;;;5036173;28;20044;-61
2023/07/18 04:06:46;;;;;;;0.75;0.75;;;;;;;;;;5032650;28;20037;-61
2023/07/18 04:09:12;;;;;;;1.23;0.60;;;;;;;;;;5035418;28;20068;-61
2023/07/18 04:11:39;;;;;;;1.30;0.63;;;;;;;;;;5035905;28;20057;-62
2023/07/18 04:14:05;;;;;;;1.15;0.88;;;;;;;;;;5033810;28;20460;-62
2023/07/18 04:16:31;;;;;;;0.90;0.70;;;;;;;;;;5038499;28;20138;-62
2023/07/18 04:18:57;;;;;;;0.80;0.70;;;;;;;;;;5037410;28;20190;-62
2023/07/18 04:21:23;;;;;;;2.10;0.75;;;;;;;;;;5035030;28;20040;-61
2023/07/18 04:23:49;;;;;;;1.42;0.70;;;;;;;;;;5035337;28;20045;-61
2023/07/18 04:26:15;;;;;;;0.95;0.75;;;;;;;;;;5033089;28;20032;-62
2023/07/18 04:28:42;;;;;;;0.90;0.80;;;;;;;;;;5035115;28;20049;-61
2023/07/18 04:31:08;;;;;;;1.90;0.93;;;;;;;;;;5037141;28;20144;-61
2023/07/18 04:33:34;;;;;;;1.30;0.60;;;;;;;;;;5037815;28;20119;-61
2023/07/18 04:36:00;;;;;;;0.60;0.60;;;;;;;;;;5037492;28;20124;-61
2023/07/18 04:38:27;;;;;;;1.15;0.80;;;;;;;;;;5037574;28;20095;-61
2023/07/18 04:40:53;;;;;;;3.92;0.80;;;;;;;;;;5035772;28;20053;-61
2023/07/18 04:43:19;;;;;;;1.27;0.60;;;;;;;;;;5035401;28;20041;-62
2023/07/18 04:45:46;;;;;;;1.00;0.93;;;;;;;;;;5034361;28;20045;-62
2023/07/18 04:48:13;;;;;;;1.05;0.45;;;;;;;;;;5034732;28;20044;-62
2023/07/18 04:50:39;;;;;;;0.60;0.52;;;;;;;;;;5034480;28;20563;-62
2023/07/18 04:53:05;;;;;;;1.20;0.80;;;;;;;;;;5034415;28;20045;-62
2023/07/18 04:55:31;;;;;;;0.80;0.50;;;;;;;;;;5033920;28;20116;-62
2023/07/18 04:57:57;;;;;;;1.27;0.77;;;;;;;;;;5034299;28;20120;-62
2023/07/18 05:00:23;;;;;;;2.08;0.60;;;;;;;;;;5038836;28;20036;-62
2023/07/18 05:02:49;;;;;;;0.60;0.50;;;;;;;;;;5039844;28;20628;-62
2023/07/18 05:05:17;;;;;;;1.35;0.50;;;;;;;;;;5040931;28;20136;-62
2023/07/18 05:07:44;;;;;;;0.65;0.50;;;;;;;;;;5033013;28;20447;-61
2023/07/18 05:10:11;;;;;;;2.88;1.00;;;;;;;;;;5035304;28;20057;-61
2023/07/18 05:12:37;;;;;;;1.65;1.00;;;;;;;;;;5033331;28;20136;-61
2023/07/18 05:15:03;;;;;;;1.08;0.82;;;;;;;;;;5035727;28;20461;-61
2023/07/18 05:17:29;;;;;;;0.98;0.88;;;;;;;;;;5033913;28;20524;-62
2023/07/18 05:19:55;;;;;;;1.65;0.75;;;;;;;;;;5032461;28;20041;-62
2023/07/18 05:22:21;;;;;;;1.92;0.70;;;;;;;;;;5035321;28;20042;-62
2023/07/18 05:24:47;;;;;;;1.83;0.68;;;;;;;;;;5035354;28;20037;-62
2023/07/18 05:27:13;;;;;;;0.85;0.70;;;;;;;;;;5033627;28;20072;-61
2023/07/18 05:29:39;;;;;;;2.47;0.75;;;;;;;;;;5036425;28;20521;-61
2023/07/18 05:32:05;;;;;;;0.40;0.40;;;;;;;;;;5039046;28;20099;-62
2023/07/18 05:34:33;;;;;;;0.95;0.40;;;;;;;;;;5034599;28;20041;-61
2023/07/18 05:37:00;;;;;;;1.05;0.73;;;;;;;;;;5036983;28;20056;-61
2023/07/18 05:39:27;;;;;;;1.85;0.70;;;;;;;;;;5033742;28;20146;-62
2023/07/18 05:41:54;;;;;;;0.88;0.85;;;;;;;;;;5030956;28;20064;-62
2023/07/18 05:44:20;;;;;;;2.50;0.80;;;;;;;;;;5035479;28;20060;-61
2023/07/18 05:46:46;;;;;;;1.42;0.88;;;;;;;;;;5033599;28;20510;-61
2023/07/18 05:49:14;;;;;;;0.98;0.73;;;;;;;;;;5035155;28;20639;-62
2023/07/18 05:51:40;;;;;;;1.13;0.70;;;;;;;;;;5031225;28;20603;-62
2023/07/18 05:54:06;;;;;;;3.25;0.82;;;;;;;;;;5037185;28;20069;-62
2023/07/18 05:56:32;;;;;;;2.22;1.05;;;;;;;;;;5034617;28;20041;-62
2023/07/18 05:59:00;;;;;;;2.63;1.63;;;;;;;;;;5036736;28;20045;-62
2023/07/18 06:01:26;;;;;;;4.47;1.58;;;;;;;;;;5033330;28;20072;-61
2023/07/18 06:03:52;;;;;;;3.13;1.70;;;;;;;;;;5037541;28;20037;-62
2023/07/18 06:06:19;;;;;;;1.80;1.20;;;;;;;;;;5030139;28;20648;-62
2023/07/18 06:08:45;;;;;;;1.25;1.10;;;;;;;;;;5036305;28;20037;-61
2023/07/18 06:11:11;;;;;;;3.03;1.30;;;;;;;;;;5036395;28;20043;-62
2023/07/18 06:13:37;;;;;;;1.45;1.23;;;;;;;;;;5039223;28;20531;-61
2023/07/18 06:16:04;;;;;;;1.60;0.98;;;;;;;;;;5038840;28;20049;-61
2023/07/18 06:18:30;;;;;;;1.17;0.63;;;;;;;;;;5036834;28;20106;-61
2023/07/18 06:20:56;;;;;;;2.17;0.73;;;;;;;;;;5037930;28;20057;-62
2023/07/18 06:23:22;;;;;;;1.20;0.90;;;;;;;;;;5040021;28;20033;-62
2023/07/18 06:25:48;;;;;;;1.50;0.75;;;;;;;;;;5038225;28;20391;-62
2023/07/18 06:28:14;;;;;;;1.05;0.95;;;;;;;;;;5034145;28;20072;-61
2023/07/18 06:30:40;;;;;;;3.63;1.27;;;;;;;;;;5036704;28;20076;-61
2023/07/18 06:33:06;;;;;;;2.20;1.30;;;;;;;;;;5038807;28;20798;-61
2023/07/18 06:35:32;;;;;;;3.40;1.45;;;;;;;;;;5039483;28;20083;-61
2023/07/18 06:37:58;;;;;;;2.88;1.65;;;;;;;;;;5028926;28;20256;-62
2023/07/18 06:40:24;;;;;;;1.88;0.90;;;;;;;;;;5028899;28;20186;-61
2023/07/18 06:42:50;;;;;;;2.33;1.38;;;;;;;;;;5049068;28;20556;-61
2023/07/18 06:45:16;;;;;;;1.27;1.02;;;;;;;;;;5043230;28;20041;-61
2023/07/18 06:47:43;;;;;;;0.95;0.82;;;;;;;;;;5036062;28;20037;-61
2023/07/18 06:50:10;;;;;;;4.90;1.90;;;;;;;;;;5037502;28;20048;-64
2023/07/18 06:52:36;;;;;;;2.47;1.08;;;;;;;;;;5042361;28;20244;-59
2023/07/18 06:55:02;;;;;;;3.75;2.38;;;;;;;;;;5027851;28;20045;-63
2023/07/18 06:57:28;;;;;;;6.70;2.90;;;;;;;;;;5027624;28;20337;-60
2023/07/18 06:59:54;;;;;;;2.75;1.30;;;;;;;;;;5027921;28;20056;-66
2023/07/18 07:02:20;;;;;;;3.50;1.23;;;;;;;;;;5026922;28;20517;-61
2023/07/18 07:04:46;;;;;;;1.30;1.05;;;;;;;;;;5027987;28;20048;-62
2023/07/18 07:07:12;;;;;;;4.60;1.58;;;;;;;;;;5037297;28;20037;-62
2023/07/18 07:09:38;;;;;;;1.63;1.25;;;;;;;;;;5038981;28;20422;-61
2023/07/18 07:12:05;;;;;;;1.80;1.00;;;;;;;;;;5043315;28;20501;-62
2023/07/18 07:14:31;;;;;;;2.88;1.55;;;;;;;;;;5042564;28;20437;-62
2023/07/18 07:16:58;;;;;;;1.73;1.13;;;;;;;;;;5038665;28;20371;-62
2023/07/18 07:19:24;;;;;;;1.42;0.90;;;;;;;;;;5036105;28;20105;-62
2023/07/18 07:21:50;;;;;;;2.70;1.50;;;;;;;;;;5041191;28;20045;-62
2023/07/18 07:24:16;;;;;;;4.75;2.45;;;;;;;;;;5042035;28;20138;-62
2023/07/18 07:26:42;;;;;;;4.85;2.15;;;;;;;;;;5040609;28;20041;-62
2023/07/18 07:29:09;;;;;;;5.28;2.15;;;;;;;;;;5038687;28;20041;-62
2023/07/18 07:31:37;;;;;;;5.30;1.75;;;;;;;;;;5046551;28;20056;-62
2023/07/18 07:34:03;;;;;;;3.40;1.75;;;;;;;;;;5037176;28;20045;-57
2023/07/18 07:36:29;;;;;;;5.63;2.47;;;;;;;;;;5041669;28;20102;-61
2023/07/18 07:38:55;;;;;;;2.00;1.55;;;;;;;;;;5037028;28;20513;-62
2023/07/18 07:41:22;;;;;;;1.58;1.30;;;;;;;;;;5033107;28;20048;-63
2023/07/18 07:43:48;;;;;;;4.88;1.85;;;;;;;;;;5025480;28;20057;-63
2023/07/18 07:46:14;;;;;;;2.47;1.55;;;;;;;;;;5025856;28;20037;-62
2023/07/18 07:48:40;;;;;;;4.68;1.60;;;;;;;;;;5025226;28;20126;-62
2023/07/18 07:51:06;;;;;;;4.07;1.77;;;;;;;;;;5024735;28;20046;-62
2023/07/18 07:53:32;;;;;;;7.57;2.80;;;;;;;;;;5025462;28;20441;-62
2023/07/18 07:55:58;;;;;;;2.25;1.73;;;;;;;;;;5024997;28;20572;-62
2023/07/18 07:58:24;;;;;;;4.72;2.13;;;;;;;;;;5024153;28;20080;-63
2023/07/18 08:00:51;;;;;;;2.97;1.58;;;;;;;;;;5033954;28;20045;-61
2023/07/18 08:03:17;;;;;;;3.15;1.95;;;;;;;;;;5044268;28;20480;-61
2023/07/18 08:05:43;;;;;;;2.20;1.52;;;;;;;;;;5044800;28;20806;-61
2023/07/18 08:08:10;;;;;;;2.00;1.33;;;;;;;;;;5040241;28;20053;-62
2023/07/18 08:10:36;;;;;;;4.93;1.98;;;;;;;;;;5026669;28;20413;-62
2023/07/18 08:13:02;;;;;;;3.80;1.73;;;;;;;;;;5024887;28;20119;-62
2023/07/18 08:15:28;;;;;;;5.72;2.42;;;;;;;;;;5027557;28;20385;-62
2023/07/18 08:17:54;;;;;;;5.43;2.15;;;;;;;;;;5041886;28;20081;-62
2023/07/18 08:20:21;;;;;;;2.67;2.00;;;;;;;;;;5031958;28;20405;-62
2023/07/18 08:22:47;;;;;;;2.78;1.60;;;;;;;;;;5026394;28;20102;-62
2023/07/18 08:25:13;;;;;;;3.38;1.55;;;;;;;;;;5044087;28;20524;-62
2023/07/18 08:27:39;;;;;;;2.08;1.00;;;;;;;;;;5029723;28;20041;-62
2023/07/18 08:30:06;;;;;;;0.85;0.70;;;;;;;;;;5026268;28;20095;-62
2023/07/18 08:32:32;;;;;;;0.85;0.70;;;;;;;;;;5043409;28;20485;-62
2023/07/18 08:34:58;;;;;;;2.80;1.02;;;;;;;;;;5028434;28;20619;-62
2023/07/18 08:37:24;;;;;;;2.05;1.42;;;;;;;;;;5026426;28;20408;-62
2023/07/18 08:39:50;;;;;;;2.72;1.27;;;;;;;;;;5034543;28;20132;-62
2023/07/18 08:42:17;;;;;;;3.67;1.08;;;;;;;;;;5033918;28;20505;-62
2023/07/18 08:44:45;;;;;;;3.85;1.55;;;;;;;;;;5041933;28;20571;-63
2023/07/18 08:47:12;;;;;;;2.67;1.10;;;;;;;;;;5044063;28;20045;-62
2023/07/18 08:49:39;;;;;;;1.15;0.68;;;;;;;;;;5042580;28;20044;-62
2023/07/18 08:52:05;;;;;;;1.90;0.73;;;;;;;;;;5035835;28;20116;-62
2023/07/18 08:54:33;;;;;;;2.45;1.00;;;;;;;;;;5031635;28;20108;-62
2023/07/18 08:56:59;;;;;;;0.70;0.70;;;;;;;;;;5033758;28;20723;-62
2023/07/18 08:59:26;;;;;;;1.00;0.77;;;;;;;;;;5027161;28;20065;-63
2023/07/18 09:01:53;;;;;;;3.22;1.20;;;;;;;;;;5025424;28;20045;-63
2023/07/18 09:04:19;;;;;;;3.40;0.95;;;;;;;;;;5026960;28;20056;-63
2023/07/18 09:06:49;;;;;;;0.80;0.60;;;;;;;;;;5042357;28;20044;-62
2023/07/18 09:09:17;;;;;;;2.03;0.68;;;;;;;;;;5031722;28;20131;-62
2023/07/18 09:11:59;;;;;;;1.98;0.47;;;;;;;;;;5040971;28;20311;-62
2023/07/18 09:14:26;;;;;;;1.88;0.80;;;;;;;;;;5027992;28;20084;-62
2023/07/18 09:16:54;;;;;;;3.08;0.70;;;;;;;;;;5030546;28;20041;-62
2023/07/18 09:19:20;;;;;;;1.30;0.50;;;;;;;;;;5034239;28;20049;-63
2023/07/18 09:21:46;;;;;;;0.68;0.60;;;;;;;;;;5028727;28;20034;-63
2023/07/18 09:24:12;;;;;;;0.85;0.60;;;;;;;;;;5033978;28;20094;-63
2023/07/18 09:26:39;;;;;;;1.85;0.82;;;;;;;;;;5033616;28;20045;-63
2023/07/18 09:29:11;;;;;;;1.38;0.50;;;;;;;;;;5033768;28;20044;-63
2023/07/18 09:31:38;;;;;;;1.30;0.68;;;;;;;;;;5036462;28;20913;-63
2023/07/18 09:34:10;;;;;;;3.55;0.93;;;;;;;;;;5034357;28;20038;-63
2023/07/18 09:36:36;;;;;;;2.03;1.10;;;;;;;;;;5032354;28;20048;-63
2023/07/18 09:39:03;;;;;;;2.00;1.08;;;;;;;;;;5034110;28;20042;-63
2023/07/18 09:41:30;;;;;;;0.95;0.45;;;;;;;;;;5028142;28;20098;-63
2023/07/18 09:43:57;;;;;;;0.70;0.30;;;;;;;;;;5030919;28;20183;-63
2023/07/18 09:46:23;;;;;;;1.00;0.50;;;;;;;;;;5035920;28;20078;-63
2023/07/18 09:48:49;;;;;;;0.73;0.30;;;;;;;;;;5042459;28;20448;-63
2023/07/18 09:51:16;;;;;;;0.70;0.30;;;;;;;;;;5034468;28;20124;-63
2023/07/18 09:53:45;;;;;;;0.30;0.30;;;;;;;;;;5027669;28;20139;-63
2023/07/18 09:56:14;;;;;;;0.98;0.85;;;;;;;;;;5031338;28;20481;-62
2023/07/18 09:58:42;;;;;;;1.38;0.40;;;;;;;;;;5045932;28;20037;-63
2023/07/18 10:01:11;;;;;;;1.17;0.50;;;;;;;;;;5044067;28;20152;-63
2023/07/18 10:03:38;;;;;;;0.75;0.55;;;;;;;;;;5028358;28;20128;-62
2023/07/18 10:06:06;;;;;;;2.03;0.65;;;;;;;;;;5041647;28;20607;-64
2023/07/18 10:08:32;;;;;;;0.47;0.40;;;;;;;;;;5046689;28;20033;-63
2023/07/18 10:11:07;;;;;;;1.23;0.68;;;;;;;;;;5041756;28;20048;-63
2023/07/18 10:13:53;;;;;;;0.57;0.55;;;;;;;;;;5036044;28;20054;-63
2023/07/18 10:16:20;;;;;;;1.58;0.73;;;;;;;;;;5033299;28;20095;-63
2023/07/18 10:18:47;;;;;;;1.33;0.60;;;;;;;;;;5032521;28;20504;-63
2023/07/18 10:21:14;;;;;;;1.73;0.60;;;;;;;;;;5034217;28;20124;-63
2023/07/18 10:23:41;;;;;;;0.93;0.55;;;;;;;;;;5032692;28;20038;-64
2023/07/18 10:26:07;;;;;;;0.63;0.30;;;;;;;;;;5030704;28;20095;-63
2023/07/18 10:28:43;;;;;;;1.65;0.43;;;;;;;;;;5034760;28;20037;-63
2023/07/18 10:31:09;;;;;;;1.55;1.00;;;;;;;;;;5033929;28;20048;-63
2023/07/18 10:33:35;;;;;;;1.70;0.50;;;;;;;;;;5031927;28;20353;-63
2023/07/18 10:36:01;;;;;;;0.68;0.35;;;;;;;;;;5030082;28;20049;-63
2023/07/18 10:38:35;;;;;;;2.35;0.60;;;;;;;;;;5030683;28;20037;-63
2023/07/18 10:41:01;;;;;;;4.00;1.13;;;;;;;;;;5028089;28;20191;-64
2023/07/18 10:43:31;;;;;;;1.98;0.77;;;;;;;;;;5024901;28;20532;-63
2023/07/18 10:46:07;;;;;;;1.63;0.82;;;;;;;;;;5028169;28;20399;-64
2023/07/18 10:48:33;;;;;;;1.65;0.43;;;;;;;;;;5030214;28;20047;-64
2023/07/18 10:51:01;;;;;;;0.77;0.52;;;;;;;;;;5040334;28;20403;-64
2023/07/18 10:53:28;;;;;;;1.77;0.60;;;;;;;;;;5033582;28;20080;-64
2023/07/18 10:55:57;;;;;;;0.65;0.52;;;;;;;;;;5025836;28;20041;-64
2023/07/18 10:58:23;;;;;;;1.42;0.60;;;;;;;;;;5035237;28;20056;-64
2023/07/18 11:00:50;;;;;;;0.95;0.57;;;;;;;;;;5033510;28;20365;-64
2023/07/18 11:03:20;;;;;;;1.20;0.80;;;;;;;;;;5046689;28;20072;-64
2023/07/18 11:05:49;;;;;;;2.35;0.85;;;;;;;;;;5050457;28;20052;-64
2023/07/18 11:08:25;;;;;;;0.95;0.32;;;;;;;;;;5036273;28;20641;-63
2023/07/18 11:10:54;;;;;;;0.52;0.45;;;;;;;;;;5030098;28;20064;-64
2023/07/18 11:13:20;;;;;;;2.20;0.73;;;;;;;;;;5029897;28;20108;-63
2023/07/18 11:15:46;;;;;;;2.45;1.30;;;;;;;;;;5032379;28;20037;-63
2023/07/18 11:18:13;;;;;;;1.75;0.85;;;;;;;;;;5040187;28;20586;-63
2023/07/18 11:20:39;;;;;;;1.13;0.73;;;;;;;;;;5047391;28;20608;-63
2023/07/18 11:23:06;;;;;;;3.30;0.90;;;;;;;;;;5031331;28;20480;-63
2023/07/18 11:25:32;;;;;;;1.02;0.55;;;;;;;;;;5029768;28;20038;-63
2023/07/18 11:27:58;;;;;;;3.75;1.30;;;;;;;;;;5040408;28;20065;-63
2023/07/18 11:30:24;;;;;;;1.27;0.70;;;;;;;;;;5036419;28;20044;-63
2023/07/18 11:32:51;;;;;;;2.78;1.15;;;;;;;;;;5037072;28;20045;-63
2023/07/18 11:35:21;;;;;;;3.47;1.20;;;;;;;;;;5033122;28;20103;-63
2023/07/18 11:37:51;;;;;;;1.80;0.88;;;;;;;;;;5037946;28;20604;-63
2023/07/18 11:40:21;;;;;;;1.35;0.90;;;;;;;;;;5033939;28;20048;-63
2023/07/18 11:42:51;;;;;;;1.48;0.85;;;;;;;;;;5037973;28;20049;-63
2023/07/18 11:45:21;;;;;;;2.42;1.00;;;;;;;;;;5036553;28;20068;-63
2023/07/18 11:47:49;;;;;;;1.88;0.98;;;;;;;;;;5035124;28;20041;-63
2023/07/18 11:50:15;;;;;;;3.25;1.20;;;;;;;;;;5030397;28;20075;-63
2023/07/18 11:52:42;;;;;;;3.58;1.10;;;;;;;;;;5030144;28;20061;-63
2023/07/18 11:55:08;;;;;;;2.95;1.20;;;;;;;;;;5031639;28;20041;-63
2023/07/18 11:57:34;;;;;;;2.95;1.30;;;;;;;;;;5032237;28;20107;-63
2023/07/18 12:00:02;;;;;;;1.25;0.88;;;;;;;;;;5031860;28;20045;-63
2023/07/18 12:02:28;;;;;;;1.63;0.80;;;;;;;;;;5031330;28;20041;-63
2023/07/18 12:04:55;;;;;;;1.00;0.70;;;;;;;;;;5031325;28;20045;-63
2023/07/18 12:07:21;;;;;;;0.65;0.50;;;;;;;;;;5033371;28;20053;-63
2023/07/18 12:09:47;;;;;;;0.70;0.50;;;;;;;;;;5030206;28;20037;-63
2023/07/18 12:12:13;;;;;;;0.38;0.30;;;;;;;;;;5032243;28;20074;-63
2023/07/18 12:14:41;;;;;;;0.32;0.32;;;;;;;;;;5038457;28;20125;-63
2023/07/18 12:17:07;;;;;;;0.77;0.30;;;;;;;;;;5035731;28;20597;-64
2023/07/18 12:19:33;;;;;;;0.57;0.30;;;;;;;;;;5036747;28;20055;-63
2023/07/18 12:21:59;;;;;;;0.70;0.20;;;;;;;;;;5033165;28;20052;-63
2023/07/18 12:24:25;;;;;;;0.93;0.40;;;;;;;;;;5035082;28;20522;-63
2023/07/18 12:26:51;;;;;;;0.88;0.38;;;;;;;;;;5032293;28;20128;-63
2023/07/18 12:29:18;;;;;;;1.42;0.47;;;;;;;;;;5035121;28;20048;-63
2023/07/18 12:31:49;;;;;;;0.30;0.30;;;;;;;;;;5034943;28;20045;-63
2023/07/18 12:34:16;;;;;;;0.40;0.30;;;;;;;;;;5034855;28;20045;-63
2023/07/18 12:36:42;;;;;;;0.20;0.20;;;;;;;;;;5036415;28;20124;-63
2023/07/18 12:39:08;;;;;;;1.08;0.50;;;;;;;;;;5034168;28;20292;-63
2023/07/18 12:41:35;;;;;;;0.50;0.40;;;;;;;;;;5035847;28;20049;-63
2023/07/18 12:44:01;;;;;;;0.40;0.40;;;;;;;;;;5032847;28;20091;-63
2023/07/18 12:46:27;;;;;;;0.80;0.30;;;;;;;;;;5030050;28;20068;-63
2023/07/18 12:48:54;;;;;;;1.65;0.55;;;;;;;;;;5030082;28;20476;-63
2023/07/18 12:51:21;;;;;;;0.93;0.52;;;;;;;;;;5032153;28;20544;-62
2023/07/18 12:53:47;;;;;;;0.38;0.32;;;;;;;;;;5038991;28;20075;-63
2023/07/18 12:56:14;;;;;;;0.32;0.30;;;;;;;;;;5036886;28;20029;-63
2023/07/18 12:58:41;;;;;;;0.60;0.40;;;;;;;;;;5041102;28;20489;-63
2023/07/18 13:01:08;;;;;;;0.38;0.35;;;;;;;;;;5041242;28;20041;-63
2023/07/18 13:03:34;;;;;;;2.60;0.50;;;;;;;;;;5041489;28;20349;-63
2023/07/18 13:06:00;;;;;;;0.22;0.22;;;;;;;;;;5036779;28;20128;-63
2023/07/18 13:08:26;;;;;;;0.50;0.30;;;;;;;;;;5031427;28;20037;-63
2023/07/18 13:10:52;;;;;;;0.30;0.30;;;;;;;;;;5034900;28;20073;-63
2023/07/18 13:13:18;;;;;;;0.43;0.30;;;;;;;;;;5027861;28;20064;-63
2023/07/18 13:15:44;;;;;;;0.20;0.20;;;;;;;;;;5027559;28;20041;-63
2023/07/18 13:18:11;;;;;;;1.30;0.50;;;;;;;;;;5034267;28;20034;-63
2023/07/18 13:20:37;;;;;;;0.57;0.30;;;;;;;;;;5037464;28;20068;-63
2023/07/18 13:23:03;;;;;;;0.30;0.30;;;;;;;;;;5027363;28;20049;-63
2023/07/18 13:25:29;;;;;;;0.80;0.35;;;;;;;;;;5036466;28;20726;-63
2023/07/18 13:27:55;;;;;;;0.32;0.30;;;;;;;;;;5029471;28;20071;-63
2023/07/18 13:30:21;;;;;;;0.28;0.22;;;;;;;;;;5032229;28;20063;-63
2023/07/18 13:32:47;;;;;;;0.20;0.20;;;;;;;;;;5037360;28;20075;-63
2023/07/18 13:35:13;;;;;;;1.02;0.35;;;;;;;;;;5032541;28;20046;-63
2023/07/18 13:37:39;;;;;;;0.40;0.40;;;;;;;;;;5033099;28;20506;-63
2023/07/18 13:40:06;;;;;;;0.43;0.30;;;;;;;;;;5039336;28;20493;-63
2023/07/18 13:42:32;;;;;;;0.30;0.30;;;;;;;;;;5036128;28;20033;-63
2023/07/18 13:44:58;;;;;;;0.88;0.40;;;;;;;;;;5039071;28;20681;-63
2023/07/18 13:47:24;;;;;;;0.50;0.30;;;;;;;;;;5038785;28;20045;-63
2023/07/18 13:49:51;;;;;;;0.50;0.30;;;;;;;;;;5032970;28;20098;-63
2023/07/18 13:52:20;;;;;;;0.30;0.20;;;;;;;;;;5032076;28;20045;-63
2023/07/18 13:54:47;;;;;;;0.40;0.30;;;;;;;;;;5034743;28;20131;-63
2023/07/18 13:57:13;;;;;;;0.70;0.32;;;;;;;;;;5029418;28;20041;-63
2023/07/18 13:59:39;;;;;;;0.45;0.30;;;;;;;;;;5030627;28;20405;-63
2023/07/18 14:02:06;;;;;;;0.20;0.20;;;;;;;;;;5034626;28;20042;-63
2023/07/18 14:04:33;;;;;;;0.25;0.20;;;;;;;;;;5028088;28;20040;-63
2023/07/18 14:07:00;;;;;;;0.60;0.30;;;;;;;;;;5029045;28;20489;-63
2023/07/18 14:09:26;;;;;;;0.30;0.30;;;;;;;;;;5029609;28;20040;-63
2023/07/18 14:11:52;;;;;;;0.20;0.20;;;;;;;;;;5033854;28;20050;-63
2023/07/18 14:14:18;;;;;;;0.47;0.30;;;;;;;;;;5031139;28;20398;-63
2023/07/18 14:16:44;;;;;;;0.47;0.40;;;;;;;;;;5031396;28;20029;-63
2023/07/18 14:19:10;;;;;;;0.30;0.30;;;;;;;;;;5031144;28;20056;-63
2023/07/18 14:21:36;;;;;;;0.28;0.20;;;;;;;;;;5026891;28;20045;-63
2023/07/18 14:24:02;;;;;;;0.70;0.40;;;;;;;;;;5029595;28;20409;-63
2023/07/18 14:26:28;;;;;;;0.30;0.30;;;;;;;;;;5028414;28;20172;-63
2023/07/18 14:28:54;;;;;;;0.65;0.45;;;;;;;;;;5031436;28;20041;-63
2023/07/18 14:31:20;;;;;;;0.50;0.20;;;;;;;;;;5028227;28;20566;-63
2023/07/18 14:33:46;;;;;;;0.45;0.30;;;;;;;;;;5039438;28;20041;-63
2023/07/18 14:36:13;;;;;;;0.30;0.30;;;;;;;;;;5035891;28;20129;-63
2023/07/18 14:38:39;;;;;;;0.60;0.40;;;;;;;;;;5031105;28;20473;-63